Time;durP1;ratioP1;P1;durP2;ratioP2;P2;SDS_P1;SDS_P2;PMS_P1;PMS_P2;Temp;Humidity;BMP_temperature;BMP_pressure;BME280_temperature;BME280_humidity;BME280_pressure;Samples;Min_cycle;Max_cycle;Signal;HPM_P1;HPM_P2
2022/05/12 04:44:36;;;;;;;11.22;6.40;;;;;;;11.77;71.40;98037.22;1847097;76;22956;-71
2022/05/12 04:47:02;;;;;;;8.65;6.22;;;;;;;11.73;71.80;98041.77;1849463;77;21067;-71
2022/05/12 04:49:28;;;;;;;6.17;5.10;;;;;;;11.82;71.72;98037.48;1849315;77;21004;-71
2022/05/12 04:51:57;;;;;;;8.20;5.40;;;;;;;11.92;70.49;98033.19;1832522;77;21413;-74
2022/05/12 04:54:24;;;;;;;8.23;4.80;;;;;;;12.02;70.99;98037.25;1821815;79;21134;-74
2022/05/12 04:56:51;;;;;;;8.43;4.65;;;;;;;12.12;71.03;98040.02;1820222;79;22247;-74
2022/05/12 04:59:18;;;;;;;6.50;4.75;;;;;;;12.23;70.77;98040.10;1822441;79;21087;-71
2022/05/12 05:01:44;;;;;;;7.72;4.53;;;;;;;12.32;70.34;98042.88;1822836;78;20996;-72
2022/05/12 05:04:11;;;;;;;7.62;4.62;;;;;;;12.41;69.98;98038.12;1822895;79;20988;-74
2022/05/12 05:06:37;;;;;;;7.67;5.00;;;;;;;12.51;69.44;98037.30;1823018;79;21048;-74
2022/05/12 05:09:05;;;;;;;8.98;5.60;;;;;;;12.62;69.23;98036.91;1822941;79;20983;-74
2022/05/12 05:11:36;;;;;;;8.38;4.83;;;;;;;12.72;69.34;98038.78;1823283;79;21414;-73
2022/05/12 05:14:00;;;;;;;7.90;4.95;;;;;;;12.80;68.67;98043.33;1822448;79;20964;-72
2022/05/12 05:16:27;;;;;;;9.78;5.00;;;;;;;12.90;68.62;98040.32;1822815;78;21563;-73
2022/05/12 05:18:53;;;;;;;11.30;7.25;;;;;;;12.98;68.71;98039.57;1823195;79;20976;-72
2022/05/12 05:21:19;;;;;;;13.32;8.05;;;;;;;13.07;68.32;98042.33;1823364;78;21087;-72
2022/05/12 05:23:46;;;;;;;6.95;4.72;;;;;;;13.16;67.79;98037.13;1823166;79;20965;-72
2022/05/12 05:26:12;;;;;;;10.35;4.83;;;;;;;13.25;67.98;98043.88;1823165;79;21027;-72
2022/05/12 05:28:39;;;;;;;9.45;5.60;;;;;;;13.32;68.33;98035.58;1823039;78;21062;-72
2022/05/12 05:31:06;;;;;;;8.38;4.87;;;;;;;13.40;67.74;98029.94;1823112;79;21007;-73
2022/05/12 05:33:32;;;;;;;6.58;4.83;;;;;;;13.51;68.03;98037.98;1823074;79;21464;-72
2022/05/12 05:35:58;;;;;;;8.93;4.90;;;;;;;13.59;67.90;98037.22;1823191;79;20964;-72
2022/05/12 05:38:26;;;;;;;7.75;4.75;;;;;;;13.67;67.74;98038.23;1822897;79;21022;-72
2022/05/12 05:40:52;;;;;;;12.43;4.72;;;;;;;13.75;67.29;98040.57;1823134;79;20969;-72
2022/05/12 05:43:20;;;;;;;6.92;5.50;;;;;;;13.88;67.47;98040.91;1818712;79;21508;-72
2022/05/12 05:45:47;;;;;;;6.47;4.90;;;;;;;13.99;67.03;98033.32;1811287;79;21056;-73
2022/05/12 05:48:13;;;;;;;9.68;5.37;;;;;;;14.08;66.56;98033.41;1811218;79;21013;-73
2022/05/12 05:53:31;;;;;;;9.48;5.85;;;;;;;14.30;66.10;98035.13;1811327;79;21496;-73
2022/05/12 05:56:00;;;;;;;8.00;5.35;;;;;;;14.39;65.10;98036.05;1811244;79;21095;-73
2022/05/12 05:58:28;;;;;;;8.65;5.97;;;;;;;14.52;65.48;98035.03;1811365;79;20995;-74
2022/05/12 06:00:55;;;;;;;7.67;5.50;;;;;;;14.62;65.68;98031.00;1811479;79;21036;-74
2022/05/12 06:03:22;;;;;;;7.03;5.70;;;;;;;14.70;65.16;98033.81;1811395;79;20985;-74
2022/05/12 06:05:49;;;;;;;9.43;4.97;;;;;;;14.81;65.12;98031.98;1811359;79;20993;-72
2022/05/12 06:08:18;;;;;;;7.85;4.80;;;;;;;14.88;64.32;98022.32;1811650;79;21020;-72
2022/05/12 06:10:45;;;;;;;8.35;5.05;;;;;;;15.00;64.67;98023.52;1811508;79;20989;-72
2022/05/12 06:13:12;;;;;;;7.47;4.10;;;;;;;15.13;64.29;98029.63;1811270;79;21000;-74
2022/05/12 06:15:40;;;;;;;8.25;3.58;;;;;;;15.23;64.37;98030.06;1811322;79;20977;-74
2022/05/12 06:18:09;;;;;;;8.40;3.75;;;;;;;15.33;63.90;98027.80;1811343;79;21254;-73
2022/05/12 06:20:37;;;;;;;5.78;3.55;;;;;;;15.44;63.71;98027.67;1811052;79;21005;-71
2022/05/12 06:23:04;;;;;;;7.70;4.62;;;;;;;15.54;62.05;98026.73;1811366;79;21048;-71
2022/05/12 06:25:30;;;;;;;9.08;6.47;;;;;;;15.67;62.29;98028.81;1811328;79;21005;-74
2022/05/12 06:27:56;;;;;;;6.00;4.05;;;;;;;15.76;61.08;98019.45;1811354;79;21001;-74
2022/05/12 06:30:22;;;;;;;8.43;5.00;;;;;;;15.91;61.31;98025.35;1811369;79;21195;-73
2022/05/12 06:32:51;;;;;;;10.65;4.85;;;;;;;16.02;61.34;98022.66;1811462;79;20997;-73
2022/05/12 06:35:17;;;;;;;8.75;4.50;;;;;;;16.13;60.80;98031.44;1811354;79;21390;-74
2022/05/12 06:37:44;;;;;;;6.87;4.47;;;;;;;16.22;59.48;98025.16;1811221;79;20977;-74
2022/05/12 06:40:11;;;;;;;12.53;4.58;;;;;;;16.32;59.83;98020.17;1811308;79;21056;-73
2022/05/12 06:42:41;;;;;;;9.88;4.85;;;;;;;16.42;59.80;98020.56;1811490;79;21008;-73
2022/05/12 06:45:09;;;;;;;10.30;4.53;;;;;;;16.55;59.70;98021.23;1811354;79;21071;-71
2022/05/12 06:47:36;;;;;;;8.55;4.42;;;;;;;16.68;59.69;98014.74;1809551;79;21028;-74
2022/05/12 06:50:04;;;;;;;10.80;5.00;;;;;;;16.80;59.31;98018.56;1811438;79;20985;-74
2022/05/12 06:52:31;;;;;;;11.30;5.33;;;;;;;16.95;58.81;98015.53;1811339;79;20985;-72
2022/05/12 06:54:58;;;;;;;11.12;4.83;;;;;;;17.07;58.90;98015.36;1811407;79;21024;-71
2022/05/12 06:57:30;;;;;;;13.43;5.53;;;;;;;17.18;58.82;97999.53;1811289;79;21426;-73
2022/05/12 06:59:55;;;;;;;11.43;5.50;;;;;;;17.28;58.46;98003.41;1809951;79;21064;-73
2022/05/12 07:02:22;;;;;;;11.85;6.25;;;;;;;17.35;58.18;98002.59;1811349;79;20942;-72
2022/05/12 07:04:52;;;;;;;10.93;5.70;;;;;;;17.45;58.26;98006.09;1811369;79;21029;-72
2022/05/12 07:07:17;;;;;;;9.78;5.30;;;;;;;17.55;57.58;98014.85;1811421;79;21322;-74
2022/05/12 07:09:44;;;;;;;13.10;4.92;;;;;;;17.68;57.67;98007.42;1811276;79;21087;-72
2022/05/12 07:12:12;;;;;;;11.70;4.97;;;;;;;17.76;57.26;98006.97;1811349;79;21449;-72
2022/05/12 07:14:38;;;;;;;7.70;4.50;;;;;;;17.86;57.64;98010.83;1811423;79;21009;-72
2022/05/12 07:17:04;;;;;;;6.80;4.22;;;;;;;17.94;57.12;98007.22;1811394;79;20974;-72
2022/05/12 07:19:33;;;;;;;7.30;4.87;;;;;;;18.04;56.45;98006.67;1811462;79;21418;-72
2022/05/12 07:27:29;;;;;;;12.15;5.40;;;;;;;18.27;56.48;98013.34;1811299;79;21381;-72
2022/05/12 07:29:56;;;;;;;10.28;4.97;;;;;;;18.34;56.65;98008.47;1811304;79;20989;-72
2022/05/12 07:32:22;;;;;;;32.60;6.62;;;;;;;18.43;56.66;98011.94;1811618;79;21442;-72
2022/05/12 07:34:49;;;;;;;17.17;6.42;;;;;;;18.53;56.36;98010.91;1811366;79;21041;-72
2022/05/12 07:37:15;;;;;;;12.55;6.10;;;;;;;18.63;56.27;98008.99;1811299;79;21005;-72
2022/05/12 07:39:42;;;;;;;14.55;6.33;;;;;;;18.67;55.93;98005.13;1811377;79;21032;-72
2022/05/12 07:42:09;;;;;;;13.38;5.97;;;;;;;18.74;56.06;98001.11;1811242;79;21032;-72
2022/05/12 07:44:35;;;;;;;16.05;6.50;;;;;;;18.84;55.84;98005.41;1811171;79;21001;-73
2022/05/12 07:47:09;;;;;;;13.43;6.20;;;;;;;18.92;55.88;98008.48;1811021;79;21096;-73
2022/05/12 07:49:36;;;;;;;19.80;6.90;;;;;;;19.01;55.76;98000.30;1811445;79;21053;-73
2022/05/12 07:52:09;;;;;;;10.85;6.47;;;;;;;19.08;55.58;98003.02;1811542;79;21054;-73
2022/05/12 07:54:36;;;;;;;12.30;5.72;;;;;;;19.17;55.28;98006.05;1811435;79;21008;-73
2022/05/12 07:57:03;;;;;;;13.95;6.65;;;;;;;19.26;55.26;97990.68;1811208;79;20999;-73
2022/05/12 07:59:32;;;;;;;12.40;6.40;;;;;;;19.36;55.28;97995.83;1811594;79;21033;-73
2022/05/12 08:01:59;;;;;;;11.35;5.60;;;;;;;19.48;55.16;98004.91;1811324;79;21425;-74
2022/05/12 08:04:25;;;;;;;8.70;5.47;;;;;;;19.59;55.16;97994.80;1811115;79;20996;-73
2022/05/12 08:06:52;;;;;;;10.05;5.58;;;;;;;19.69;54.94;98000.44;1811330;79;20977;-73
2022/05/12 08:09:19;;;;;;;11.88;5.90;;;;;;;19.76;54.17;98000.39;1811180;79;21105;-74
2022/05/12 08:11:45;;;;;;;11.05;5.30;;;;;;;19.85;54.02;98000.23;1811211;79;21029;-74
2022/05/12 08:14:12;;;;;;;7.42;4.80;;;;;;;19.97;53.66;97998.57;1811227;79;21123;-73
2022/05/12 08:16:39;;;;;;;12.50;5.30;;;;;;;20.08;53.62;97999.66;1811229;79;21436;-73
2022/05/12 08:19:05;;;;;;;8.05;4.50;;;;;;;20.20;52.39;98001.52;1811108;79;21040;-73
2022/05/12 08:21:32;;;;;;;16.00;4.70;;;;;;;20.31;52.64;98000.78;1811384;79;21346;-73
2022/05/12 08:23:58;;;;;;;7.22;4.50;;;;;;;20.42;52.96;97997.31;1811301;79;21027;-73
2022/05/12 08:26:25;;;;;;;8.50;4.87;;;;;;;20.51;52.13;97997.17;1811273;79;20981;-73
2022/05/12 08:28:52;;;;;;;11.20;4.47;;;;;;;20.63;51.79;98004.37;1811264;79;21409;-73
2022/05/12 08:31:21;;;;;;;8.40;4.30;;;;;;;20.75;51.52;97993.72;1811257;79;21064;-74
2022/05/12 08:33:48;;;;;;;7.37;4.72;;;;;;;20.89;51.51;97995.44;1811141;79;21188;-74
2022/05/12 08:36:15;;;;;;;9.18;4.25;;;;;;;20.98;51.11;97989.38;1811201;79;21028;-73
2022/05/12 08:38:44;;;;;;;10.65;4.30;;;;;;;21.05;49.92;97988.45;1811199;79;21004;-74
2022/05/12 08:41:19;;;;;;;8.90;4.55;;;;;;;21.13;50.34;97982.50;1810858;79;21056;-73
2022/05/12 08:43:51;;;;;;;8.98;4.55;;;;;;;21.18;49.97;97977.12;1810792;79;21438;-73
2022/05/12 08:46:24;;;;;;;7.83;4.65;;;;;;;21.27;50.01;97972.04;1811075;79;21437;-74
2022/05/12 08:48:54;;;;;;;9.60;4.55;;;;;;;21.34;49.38;97968.77;1811486;79;20947;-74
2022/05/12 08:51:22;;;;;;;6.50;4.10;;;;;;;21.43;49.51;97971.77;1810403;79;21048;-73
2022/05/12 08:53:52;;;;;;;7.90;4.17;;;;;;;21.57;49.60;97974.76;1811194;79;20996;-74
2022/05/12 08:56:21;;;;;;;5.78;3.52;;;;;;;21.70;47.89;97961.20;1811131;79;21040;-73
2022/05/12 08:58:49;;;;;;;7.85;3.60;;;;;;;21.87;47.60;97968.91;1811301;79;21028;-74
2022/05/12 09:01:25;;;;;;;5.95;4.00;;;;;;;22.08;47.01;97961.98;1811088;79;21069;-74
2022/05/12 09:04:16;;;;;;;6.70;4.15;;;;;;;22.22;46.97;97960.38;1811336;79;21076;-74
2022/05/12 09:07:03;;;;;;;8.38;3.85;;;;;;;22.36;46.80;97962.50;1811406;79;21492;-75
2022/05/12 09:09:36;;;;;;;5.42;3.70;;;;;;;22.66;45.32;97957.02;1810012;79;21020;-74
2022/05/12 09:12:08;;;;;;;6.83;3.60;;;;;;;22.66;45.32;97957.02;1742753;79;20992;-74
2022/05/12 09:14:38;;;;;;;7.10;4.12;;;;;;;22.82;43.16;97964.75;1811627;79;21044;-73
2022/05/12 09:17:05;;;;;;;10.10;3.95;;;;;;;22.98;44.57;97960.80;1810766;79;21056;-73
2022/05/12 09:19:31;;;;;;;6.33;4.03;;;;;;;23.08;44.61;97963.98;1811486;79;21422;-73
2022/05/12 09:21:58;;;;;;;7.03;4.12;;;;;;;23.15;44.35;97960.77;1811377;79;21091;-74
2022/05/12 09:24:24;;;;;;;8.63;4.53;;;;;;;23.22;44.47;97960.64;1811476;79;21449;-73
2022/05/12 09:26:54;;;;;;;9.30;4.35;;;;;;;23.27;44.90;97962.95;1811582;79;21012;-73
2022/05/12 09:29:26;;;;;;;6.85;4.15;;;;;;;23.31;44.40;97967.99;1809196;79;21451;-73
2022/05/12 09:31:59;;;;;;;10.93;4.22;;;;;;;23.43;43.76;97958.52;1811469;79;21063;-74
2022/05/12 09:34:30;;;;;;;5.83;3.83;;;;;;;23.45;42.88;97951.12;1808572;79;21071;-74
2022/05/12 09:36:56;;;;;;;9.83;4.10;;;;;;;23.58;43.84;97950.97;1811469;79;21040;-73
2022/05/12 09:39:35;;;;;;;8.10;4.00;;;;;;;23.69;43.93;97950.91;1811385;79;20996;-73
2022/05/12 09:42:03;;;;;;;5.80;3.70;;;;;;;23.82;43.52;97945.31;1811390;79;21056;-73
2022/05/12 09:44:32;;;;;;;7.50;3.83;;;;;;;23.99;43.50;97950.63;1814507;79;21043;-73
2022/05/12 09:47:08;;;;;;;4.55;3.87;;;;;;;24.09;41.41;97945.81;1819889;79;21056;-74
2022/05/12 09:49:40;;;;;;;7.70;3.75;;;;;;;24.25;42.50;97948.05;1819313;79;21453;-73
2022/05/12 09:52:26;;;;;;;6.08;3.83;;;;;;;24.36;41.98;97943.03;1819898;79;20992;-74
2022/05/12 09:55:19;;;;;;;5.10;3.75;;;;;;;24.54;42.04;97939.70;1819941;79;21137;-73
2022/05/12 09:57:55;;;;;;;5.00;3.72;;;;;;;24.70;42.03;97935.98;1820182;79;21470;-73
2022/05/12 10:00:28;;;;;;;6.65;3.60;;;;;;;24.75;40.87;97937.78;1819984;79;21056;-73
2022/05/12 10:09:18;;;;;;;7.05;3.98;;;;;;;24.76;40.36;97928.69;1820002;79;20997;-73
2022/05/12 10:12:17;;;;;;;7.08;4.03;;;;;;;24.81;40.21;97932.32;1820032;79;21404;-73
2022/05/12 10:15:03;;;;;;;6.95;4.33;;;;;;;24.82;39.87;97934.55;1819944;79;21012;-73
2022/05/12 10:17:45;;;;;;;9.55;4.08;;;;;;;24.84;40.00;97930.73;1819057;79;21432;-73
2022/05/12 10:20:21;;;;;;;7.90;4.00;;;;;;;24.95;39.82;97935.68;1820076;79;21512;-73
2022/05/12 10:23:03;;;;;;;7.55;4.28;;;;;;;25.08;39.51;97929.48;1820005;79;21052;-73
2022/05/12 10:25:56;;;;;;;8.58;4.00;;;;;;;25.08;38.18;97924.06;1819993;79;21104;-73
2022/05/12 10:28:22;;;;;;;6.05;3.83;;;;;;;25.18;39.33;97916.83;1818472;79;21413;-73
2022/05/12 10:30:55;;;;;;;9.58;3.90;;;;;;;25.25;39.90;97918.45;1820206;79;20992;-73
2022/05/12 10:33:48;;;;;;;5.45;4.10;;;;;;;25.37;40.00;97911.03;1817804;79;21016;-73
2022/05/12 10:36:51;;;;;;;7.20;4.12;;;;;;;25.56;39.36;97910.72;1819969;79;20998;-74
2022/05/12 10:39:24;;;;;;;6.17;3.80;;;;;;;25.82;38.39;97910.13;1819976;79;21000;-73
2022/05/12 10:42:00;;;;;;;7.62;3.77;;;;;;;26.61;36.20;97898.56;1820108;79;21009;-73
2022/05/12 10:44:53;;;;;;;7.42;3.75;;;;;;;27.87;36.36;97903.45;1787240;79;21426;-74
2022/05/12 10:47:23;;;;;;;5.65;3.42;;;;;;;28.47;32.15;97901.81;1811382;79;21016;-74
2022/05/12 10:49:53;;;;;;;5.28;3.30;;;;;;;29.01;33.57;97896.59;1810826;79;21017;-74
2022/05/12 10:52:32;;;;;;;6.72;3.60;;;;;;;30.20;32.71;97891.42;1810290;79;21089;-74
2022/05/12 10:55:26;;;;;;;6.20;4.00;;;;;;;30.79;32.80;97886.12;1810582;79;20993;-74
2022/05/12 10:58:19;;;;;;;6.00;4.12;;;;;;;31.37;30.62;97878.11;1811381;79;20980;-74
2022/05/12 11:01:00;;;;;;;6.87;3.77;;;;;;;32.39;31.31;97882.84;1810167;79;21000;-74
2022/05/12 11:03:39;;;;;;;5.40;3.77;;;;;;;33.11;28.72;97872.74;1811477;79;20954;-74
2022/05/12 11:06:09;;;;;;;4.95;3.60;;;;;;;33.43;28.86;97871.06;1810724;79;21009;-74
2022/05/12 11:08:39;;;;;;;5.72;3.58;;;;;;;34.40;28.85;97869.74;1811299;79;20993;-74
2022/05/12 11:11:09;;;;;;;5.22;3.77;;;;;;;35.07;28.15;97860.98;1811206;79;20993;-74
2022/05/12 11:13:45;;;;;;;6.42;3.58;;;;;;;35.44;26.95;97857.91;1811364;79;21047;-74
2022/05/12 11:16:26;;;;;;;4.72;3.08;;;;;;;36.16;26.93;97856.77;1811394;79;21489;-75
2022/05/12 11:19:05;;;;;;;5.37;2.90;;;;;;;36.70;24.86;97856.65;1811028;79;20980;-74
2022/05/12 11:21:36;;;;;;;3.37;3.08;;;;;;;36.93;22.58;97847.52;1811336;79;21035;-75
2022/05/12 11:24:11;;;;;;;3.33;2.98;;;;;;;36.03;19.85;97847.95;1809376;79;21056;-75
2022/05/12 11:26:44;;;;;;;5.12;2.90;;;;;;;35.65;20.57;97847.23;1811033;79;21049;-72
2022/05/12 11:32:21;;;;;;;3.50;2.87;;;;;;;34.77;22.69;97849.75;1811528;79;21331;-72
2022/05/12 11:34:54;;;;;;;5.17;3.17;;;;;;;34.19;22.66;97842.14;1811328;79;21060;-72
2022/05/12 11:37:35;;;;;;;3.08;2.77;;;;;;;34.85;22.74;97841.84;1811584;79;20981;-74
2022/05/12 11:40:11;;;;;;;2.95;2.60;;;;;;;35.13;21.61;97836.77;1811540;79;21005;-75
2022/05/12 11:45:48;;;;;;;4.90;2.85;;;;;;;35.62;21.67;97826.45;1811377;79;20993;-75
2022/05/12 11:48:30;;;;;;;6.87;3.00;;;;;;;35.75;20.29;97820.64;1811323;79;20965;-75
2022/05/12 11:51:09;;;;;;;3.17;2.80;;;;;;;35.56;19.04;97829.20;1811423;79;21040;-73
2022/05/12 11:54:07;;;;;;;4.37;2.85;;;;;;;35.84;20.60;97822.12;1811066;79;21005;-74
2022/05/12 11:56:49;;;;;;;5.55;2.50;;;;;;;36.04;19.04;97828.13;1811326;79;21012;-74
2022/05/12 11:59:20;;;;;;;4.15;2.70;;;;;;;35.53;19.90;97811.16;1811528;79;21001;-74
2022/05/12 12:02:02;;;;;;;4.80;2.85;;;;;;;35.39;18.87;97811.17;1811371;79;21036;-74
2022/05/12 12:04:41;;;;;;;5.25;2.80;;;;;;;34.82;20.99;97802.36;1811360;79;21111;-74
2022/05/12 12:07:17;;;;;;;4.58;2.52;;;;;;;35.11;21.88;97802.55;1811564;79;21055;-74
2022/05/12 12:09:47;;;;;;;5.40;2.75;;;;;;;35.27;19.40;97803.20;1811335;79;21060;-75
2022/05/12 12:12:33;;;;;;;3.67;2.83;;;;;;;35.01;19.79;97797.95;1811271;79;21476;-75
2022/05/12 12:15:01;;;;;;;5.25;2.87;;;;;;;35.02;20.78;97785.87;1811367;79;21008;-75
2022/05/12 12:17:33;;;;;;;3.37;3.10;;;;;;;35.66;21.01;97793.28;1811405;79;20992;-75
2022/05/12 12:20:08;;;;;;;4.10;3.05;;;;;;;35.83;20.06;97791.48;1811405;79;21430;-74
2022/05/12 12:22:38;;;;;;;4.33;2.90;;;;;;;35.86;20.11;97792.41;1810774;79;21028;-74
2022/05/12 12:25:08;;;;;;;3.08;2.75;;;;;;;36.00;20.45;97789.12;1810847;79;21009;-73
2022/05/12 12:27:55;;;;;;;5.50;3.15;;;;;;;36.32;20.34;97789.80;1811323;79;20965;-73
2022/05/12 12:30:27;;;;;;;4.00;2.58;;;;;;;36.72;20.65;97778.62;1811315;79;21061;-73
2022/05/12 12:33:14;;;;;;;4.55;2.98;;;;;;;36.64;19.18;97787.66;1810736;79;20997;-73
2022/05/12 12:36:02;;;;;;;3.37;2.80;;;;;;;36.75;18.62;97789.75;1811413;79;21013;-73
2022/05/12 12:38:50;;;;;;;4.03;2.98;;;;;;;36.28;18.86;97786.61;1811203;79;21044;-73
2022/05/12 12:41:33;;;;;;;4.85;3.00;;;;;;;36.42;20.60;97782.44;1811500;79;21037;-75
2022/05/12 12:44:07;;;;;;;3.65;2.70;;;;;;;37.40;20.74;97774.59;1811435;79;21386;-75
2022/05/12 12:46:37;;;;;;;3.87;2.60;;;;;;;38.15;19.49;97777.02;1811907;78;20993;-75
2022/05/12 12:49:13;;;;;;;3.42;3.12;;;;;;;38.30;19.26;97778.00;1812075;79;21033;-75
2022/05/12 12:51:40;;;;;;;5.75;2.75;;;;;;;38.35;19.50;97782.86;1811277;79;21056;-74
2022/05/12 12:57:18;;;;;;;5.12;3.02;;;;;;;37.42;18.18;97773.81;1811606;79;21032;-75
2022/05/12 12:59:51;;;;;;;3.27;2.80;;;;;;;37.79;19.19;97771.70;1811404;79;21040;-75
2022/05/12 13:02:41;;;;;;;4.80;3.02;;;;;;;37.76;17.65;97773.87;1790474;79;21012;-74
2022/05/12 13:05:19;;;;;;;6.20;2.75;;;;;;;37.35;18.34;97765.05;1811606;79;21040;-74
2022/05/12 13:07:55;;;;;;;3.75;2.85;;;;;;;37.43;18.28;97763.92;1811450;79;21012;-74
2022/05/12 13:10:22;;;;;;;3.30;2.67;;;;;;;37.49;18.57;97767.16;1811538;79;21416;-74
2022/05/12 13:13:01;;;;;;;3.67;2.83;;;;;;;37.59;18.16;97761.13;1811422;79;21537;-74
2022/05/12 13:15:32;;;;;;;5.35;3.10;;;;;;;37.34;17.43;97759.74;1811144;79;21651;-74
2022/05/12 13:18:00;;;;;;;5.35;2.83;;;;;;;37.59;18.04;97759.75;1811369;79;21052;-74
2022/05/12 13:20:32;;;;;;;3.67;3.00;;;;;;;37.59;17.98;97755.60;1811294;79;21100;-75
2022/05/12 13:23:05;;;;;;;5.87;2.90;;;;;;;37.45;18.53;97747.12;1810523;79;21524;-74
2022/05/12 13:25:34;;;;;;;3.85;2.70;;;;;;;37.59;18.40;97750.59;1811546;79;21029;-74
2022/05/12 13:28:09;;;;;;;3.77;3.12;;;;;;;36.96;17.58;97749.05;1811380;79;21521;-74
2022/05/12 13:30:42;;;;;;;5.05;3.00;;;;;;;36.62;18.49;97749.23;1811370;79;21024;-74
2022/05/12 13:33:12;;;;;;;4.03;3.27;;;;;;;36.93;19.10;97738.44;1811589;79;21024;-74
2022/05/12 13:35:39;;;;;;;3.33;3.00;;;;;;;37.20;19.22;97739.13;1811394;79;21074;-74
2022/05/12 13:38:10;;;;;;;4.25;2.77;;;;;;;37.43;18.72;97741.81;1811448;79;21012;-74
2022/05/12 13:40:40;;;;;;;3.47;2.90;;;;;;;37.57;17.72;97744.46;1811559;79;21016;-74
2022/05/12 13:43:16;;;;;;;7.37;3.00;;;;;;;37.20;18.54;97743.27;1811432;79;21025;-74
2022/05/12 13:45:43;;;;;;;3.75;2.72;;;;;;;36.70;18.49;97750.92;1815020;79;20977;-74
2022/05/12 13:48:16;;;;;;;4.85;3.70;;;;;;;36.80;19.03;97741.62;1819890;79;21370;-74
2022/05/12 13:50:49;;;;;;;7.05;2.95;;;;;;;36.96;18.96;97740.25;1819902;79;21107;-74
2022/05/12 13:53:24;;;;;;;5.72;3.55;;;;;;;37.27;18.71;97739.63;1820012;79;20996;-74
2022/05/12 13:56:06;;;;;;;4.78;3.20;;;;;;;37.51;18.91;97738.77;1814649;79;21446;-74
2022/05/12 13:58:36;;;;;;;4.17;2.95;;;;;;;37.67;18.72;97737.91;1816401;79;21068;-74
2022/05/12 14:01:04;;;;;;;4.17;2.90;;;;;;;37.10;18.16;97737.37;1818364;79;21593;-74
2022/05/12 14:03:32;;;;;;;4.35;3.30;;;;;;;36.58;18.59;97736.38;1819887;79;21020;-74
2022/05/12 14:06:11;;;;;;;3.65;2.83;;;;;;;36.84;19.19;97727.69;1819988;79;21000;-74
2022/05/12 14:08:37;;;;;;;4.35;2.90;;;;;;;37.04;19.63;97726.70;1802396;79;21052;-74
2022/05/12 14:11:08;;;;;;;4.78;2.90;;;;;;;37.43;18.92;97720.23;1819939;79;20993;-74
2022/05/12 14:19:42;;;;;;;3.08;2.70;;;;;;;37.53;18.12;97714.20;1819894;79;21512;-74
2022/05/12 14:22:11;;;;;;;3.72;3.10;;;;;;;37.69;18.30;97715.56;1819939;79;21020;-74
2022/05/12 14:24:42;;;;;;;6.20;3.33;;;;;;;37.87;18.36;97707.81;1819830;79;21539;-74
2022/05/12 14:27:11;;;;;;;5.00;2.85;;;;;;;37.67;18.46;97705.25;1819931;79;21104;-74
2022/05/12 14:29:38;;;;;;;4.72;2.50;;;;;;;37.68;18.45;97710.56;1820010;79;21048;-74
2022/05/12 14:32:06;;;;;;;3.75;2.92;;;;;;;37.58;18.03;97709.69;1819861;79;21354;-74
2022/05/12 14:34:33;;;;;;;4.97;2.85;;;;;;;37.53;18.54;97702.62;1819887;79;21001;-74
2022/05/12 14:37:00;;;;;;;3.75;2.80;;;;;;;37.50;18.10;97706.69;1820017;79;21087;-74
2022/05/12 14:39:30;;;;;;;5.25;2.92;;;;;;;37.24;17.67;97709.98;1819982;79;20996;-74
2022/05/12 14:41:56;;;;;;;3.80;2.83;;;;;;;37.04;17.96;97710.65;1819447;79;21016;-74
2022/05/12 14:44:24;;;;;;;3.98;2.75;;;;;;;37.05;17.95;97699.91;1819911;79;21044;-74
2022/05/12 14:46:54;;;;;;;3.85;2.90;;;;;;;36.59;18.84;97702.74;1820095;79;21017;-74
2022/05/12 14:49:30;;;;;;;7.67;3.10;;;;;;;36.61;19.11;97696.45;1820205;79;21020;-74
2022/05/12 14:51:59;;;;;;;4.17;2.77;;;;;;;36.78;18.77;97698.73;1820278;79;21389;-74
2022/05/12 14:54:27;;;;;;;3.67;2.72;;;;;;;36.83;18.38;97694.22;1820203;79;21000;-74
2022/05/12 14:56:56;;;;;;;6.80;2.90;;;;;;;36.56;19.08;97689.38;1820233;79;21448;-74
2022/05/12 14:59:22;;;;;;;3.22;2.62;;;;;;;36.58;19.34;97691.40;1820122;79;21106;-74
2022/05/12 15:01:50;;;;;;;3.05;2.75;;;;;;;36.77;19.28;97683.25;1820180;79;21055;-74
2022/05/12 15:04:16;;;;;;;7.72;2.95;;;;;;;36.88;18.32;97690.80;1820257;79;21008;-74
2022/05/12 15:06:45;;;;;;;4.83;2.85;;;;;;;36.69;18.85;97688.50;1820086;79;21071;-74
2022/05/12 15:09:12;;;;;;;5.03;3.12;;;;;;;36.42;18.60;97695.52;1820159;79;21398;-74
2022/05/12 15:11:39;;;;;;;4.28;3.15;;;;;;;36.34;18.99;97692.48;1820177;79;21020;-74
2022/05/12 15:14:06;;;;;;;4.80;2.95;;;;;;;36.56;19.13;97692.14;1820222;79;21044;-74
2022/05/12 15:16:33;;;;;;;4.05;3.00;;;;;;;36.59;18.69;97693.94;1820182;79;21429;-74
2022/05/12 15:18:59;;;;;;;3.37;3.08;;;;;;;36.53;18.93;97693.42;1820154;79;20993;-74
2022/05/12 15:21:26;;;;;;;4.67;2.77;;;;;;;36.54;19.22;97688.24;1820231;79;20977;-74
2022/05/12 15:23:52;;;;;;;3.47;2.90;;;;;;;36.48;18.86;97691.86;1820153;79;21438;-74
2022/05/12 15:26:19;;;;;;;3.95;2.70;;;;;;;36.35;18.93;97698.30;1820091;79;20969;-74
2022/05/12 15:28:47;;;;;;;5.53;3.45;;;;;;;36.04;19.04;97690.25;1820268;79;21048;-74
2022/05/12 15:31:14;;;;;;;4.95;2.70;;;;;;;35.87;19.69;97690.71;1820215;79;21036;-74
2022/05/12 15:33:40;;;;;;;4.78;2.80;;;;;;;35.43;19.53;97688.12;1824450;78;21103;-74
2022/05/12 15:36:08;;;;;;;3.75;2.60;;;;;;;34.75;19.85;97688.94;1826694;78;21012;-74
2022/05/12 15:38:35;;;;;;;6.12;2.62;;;;;;;34.18;20.58;97692.47;1826504;78;20976;-74
2022/05/12 15:41:01;;;;;;;3.77;2.90;;;;;;;33.70;21.34;97687.23;1826299;78;21046;-74
2022/05/12 15:43:28;;;;;;;4.05;2.80;;;;;;;33.16;21.65;97681.33;1826356;78;21012;-75
2022/05/12 15:45:55;;;;;;;6.70;3.08;;;;;;;32.62;22.62;97683.55;1817030;78;21408;-75
2022/05/12 15:48:22;;;;;;;3.65;2.58;;;;;;;32.04;23.67;97686.57;1792157;80;21068;-74
2022/05/12 15:50:49;;;;;;;4.05;2.75;;;;;;;31.36;24.17;97688.88;1792190;80;21043;-74
2022/05/12 15:53:17;;;;;;;7.17;5.12;;;;;;;30.86;24.30;97687.06;1792278;80;21038;-75
2022/05/12 15:55:46;;;;;;;5.70;2.90;;;;;;;30.38;24.59;97689.41;1792096;80;20952;-75
2022/05/12 15:58:14;;;;;;;3.85;2.90;;;;;;;29.84;24.94;97686.91;1792342;80;21038;-74
2022/05/12 16:00:43;;;;;;;5.37;3.08;;;;;;;29.40;25.77;97686.35;1792263;80;21024;-74
2022/05/12 16:03:10;;;;;;;6.62;3.27;;;;;;;29.15;26.10;97685.53;1792017;80;21459;-74
2022/05/12 16:05:37;;;;;;;5.15;4.15;;;;;;;28.92;26.60;97693.03;1792109;80;21381;-74
2022/05/12 16:08:04;;;;;;;6.12;3.67;;;;;;;28.67;27.36;97689.77;1792161;80;21448;-74
2022/05/12 16:10:31;;;;;;;7.33;3.58;;;;;;;28.30;28.42;97688.33;1789883;80;20968;-74
2022/05/12 16:12:58;;;;;;;5.35;3.50;;;;;;;28.03;28.97;97686.19;1792358;80;21151;-76
2022/05/12 16:15:31;;;;;;;6.60;3.30;;;;;;;27.88;28.89;97690.03;1792442;80;21039;-75
2022/05/12 16:18:00;;;;;;;6.45;3.40;;;;;;;27.69;29.34;97695.23;1792584;80;21446;-76
2022/05/12 16:20:28;;;;;;;5.85;3.77;;;;;;;27.36;30.25;97695.87;1792541;80;21015;-76
2022/05/12 16:22:55;;;;;;;5.83;4.28;;;;;;;27.19;30.11;97692.18;1789791;80;20991;-76
2022/05/12 16:25:22;;;;;;;9.33;4.85;;;;;;;27.01;30.61;97695.78;1792570;80;21055;-76
2022/05/12 16:27:55;;;;;;;5.55;3.72;;;;;;;26.85;30.88;97695.09;1789936;80;21060;-76
2022/05/12 16:30:23;;;;;;;4.03;3.50;;;;;;;26.67;30.96;97692.40;1790044;80;21054;-74
2022/05/12 16:32:52;;;;;;;5.40;4.00;;;;;;;26.59;31.25;97691.81;1790070;80;20953;-74
2022/05/12 16:35:18;;;;;;;6.92;3.83;;;;;;;26.39;32.07;97689.25;1792540;80;21058;-74
2022/05/12 16:37:47;;;;;;;5.50;3.80;;;;;;;26.32;32.43;97694.96;1789869;80;20952;-75
2022/05/12 16:40:13;;;;;;;10.08;4.37;;;;;;;26.18;33.66;97694.92;1789941;80;21003;-74
2022/05/12 16:42:39;;;;;;;5.67;3.95;;;;;;;26.04;33.71;97691.74;1792537;80;21008;-74
2022/05/12 16:45:07;;;;;;;7.80;4.40;;;;;;;25.79;35.79;97690.05;1792536;80;21023;-75
2022/05/12 16:47:33;;;;;;;5.67;4.28;;;;;;;25.60;35.13;97695.08;1820229;78;21048;-74
2022/05/12 16:49:59;;;;;;;6.47;4.20;;;;;;;25.44;35.59;97691.11;1850848;77;21465;-74
2022/05/12 16:52:25;;;;;;;6.25;4.85;;;;;;;25.27;36.03;97692.72;1850884;77;20949;-75
2022/05/12 16:54:53;;;;;;;7.60;4.55;;;;;;;25.10;36.50;97697.53;1817760;78;21438;-74
2022/05/12 16:57:22;;;;;;;7.37;4.55;;;;;;;24.91;37.09;97699.30;1814735;79;20984;-74
2022/05/12 16:59:50;;;;;;;9.55;4.40;;;;;;;24.71;38.36;97693.84;1804936;79;20996;-74
2022/05/12 17:02:18;;;;;;;9.48;4.20;;;;;;;24.56;38.16;97697.47;1805959;79;21012;-74